createdAt,value
2023-05-05T00:01:24.450Z,95963.41
2023-05-05T00:03:27.927Z,95960.13
2023-05-05T00:05:30.828Z,95959.31
2023-05-05T00:07:35.001Z,95964.19
2023-05-05T00:09:37.729Z,95968.53
2023-05-05T00:11:40.548Z,95961.22
2023-05-05T00:13:43.575Z,95962.88
2023-05-05T00:15:47.723Z,95967.16
2023-05-05T00:17:50.520Z,95965.06
2023-05-05T00:19:53.369Z,95973.94
2023-05-05T00:21:56.525Z,95963.69
2023-05-05T00:24:00.713Z,95790.78
2023-05-05T00:26:03.583Z,95956.41
2023-05-05T00:28:06.913Z,95970.16
2023-05-05T00:30:10.680Z,95862.56
2023-05-05T00:32:13.551Z,95966.69
2023-05-05T00:34:16.332Z,95902.34
2023-05-05T00:36:19.258Z,95974.31
2023-05-05T00:38:22.014Z,95973.78
2023-05-05T00:40:26.800Z,95975.69
2023-05-05T00:42:39.448Z,95966.75
2023-05-05T00:44:44.773Z,95902.94
2023-05-05T00:46:47.727Z,95971.91
2023-05-05T00:48:51.451Z,95966.78
2023-05-05T00:50:54.458Z,95967.59
2023-05-05T00:53:01.396Z,95904.53
2023-05-05T00:55:04.446Z,95863.34
2023-05-05T00:57:08.837Z,95966.88
2023-05-05T00:59:12.733Z,95899.34
2023-05-05T01:01:18.967Z,95969.47
2023-05-05T01:03:22.121Z,95813.34
2023-05-05T01:05:27.124Z,95915.47
2023-05-05T01:07:37.851Z,95963.50
2023-05-05T01:10:04.195Z,95878.31
2023-05-05T01:12:24.542Z,95955.13
2023-05-05T01:14:37.727Z,95962.41
2023-05-05T01:16:46.536Z,95555.56
2023-05-05T01:18:58.477Z,95987.41
2023-05-05T01:21:08.165Z,95961.38
2023-05-05T01:23:19.353Z,95960.03
2023-05-05T01:26:10.168Z,95951.31
2023-05-05T01:28:26.881Z,95955.13
2023-05-05T01:31:04.966Z,95959.75
2023-05-05T01:33:12.479Z,95958.09
2023-05-05T01:35:20.130Z,95964.03
2023-05-05T01:37:25.920Z,95962.25
2023-05-05T01:39:34.719Z,95938.00
2023-05-05T01:41:42.433Z,95960.53
2023-05-05T01:43:49.914Z,95930.03
2023-05-05T01:45:54.989Z,95904.69
2023-05-05T01:47:59.943Z,95902.53
2023-05-05T01:50:06.909Z,95872.81
2023-05-05T01:52:11.046Z,95966.34
2023-05-05T01:54:16.189Z,95962.84
2023-05-05T01:56:21.375Z,95741.88
2023-05-05T01:58:27.988Z,95972.59
2023-05-05T02:00:32.440Z,95934.31
2023-05-05T02:02:37.535Z,95974.22
2023-05-05T02:04:43.875Z,95910.63
2023-05-05T02:06:51.605Z,95982.88
2023-05-05T02:08:58.302Z,95799.56
2023-05-05T02:11:01.866Z,95977.94
2023-05-05T02:13:05.616Z,95986.63
2023-05-05T02:15:11.291Z,95983.44
2023-05-05T02:17:17.248Z,95986.63
2023-05-05T02:19:22.362Z,95985.25
2023-05-05T02:21:25.300Z,95989.34
2023-05-05T02:23:29.839Z,95982.28
2023-05-05T02:25:37.962Z,95985.53
2023-05-05T02:27:44.202Z,95986.69
2023-05-05T02:29:49.970Z,95892.19
2023-05-05T02:31:56.413Z,95874.72
2023-05-05T02:34:06.683Z,95990.38
2023-05-05T02:36:15.607Z,95961.78
2023-05-05T02:38:31.436Z,95981.22
2023-05-05T02:40:39.287Z,95986.69
2023-05-05T02:42:47.395Z,95984.50
2023-05-05T02:44:52.875Z,95991.00
2023-05-05T02:46:56.066Z,95726.31
2023-05-05T02:49:00.742Z,96000.25
2023-05-05T02:51:03.910Z,95997.06
2023-05-05T02:53:12.029Z,95993.78
2023-05-05T02:55:16.652Z,95874.38
2023-05-05T02:57:21.813Z,95888.09
2023-05-05T02:59:42.975Z,95999.69
2023-05-05T03:02:01.661Z,95922.66
2023-05-05T03:04:10.203Z,96006.25
2023-05-05T03:06:20.825Z,96004.34
2023-05-05T03:08:32.020Z,95998.09
2023-05-05T03:10:45.077Z,95937.44
2023-05-05T03:12:53.641Z,95998.09
2023-05-05T03:15:03.515Z,95997.31
2023-05-05T03:17:08.054Z,95996.75
2023-05-05T03:19:13.094Z,95997.88
2023-05-05T03:21:17.722Z,95996.66
2023-05-05T03:23:22.734Z,95700.59
2023-05-05T03:25:44.965Z,95974.19
2023-05-05T03:27:53.296Z,95994.19
2023-05-05T03:29:58.395Z,95995.00
2023-05-05T03:32:02.714Z,95986.88
2023-05-05T03:34:06.145Z,95994.72
2023-05-05T03:36:14.446Z,95988.53
2023-05-05T03:38:17.772Z,95945.63
2023-05-05T03:40:29.663Z,95991.81
2023-05-05T03:42:41.252Z,95996.72
2023-05-05T03:44:44.305Z,95997.03
2023-05-05T03:46:47.304Z,95877.47
2023-05-05T03:48:51.616Z,95798.72
2023-05-05T03:50:55.273Z,95988.38
2023-05-05T03:53:00.418Z,96005.59
2023-05-05T03:55:03.286Z,95706.00
2023-05-05T03:57:06.125Z,96005.94
2023-05-05T03:59:10.232Z,96001.84
2023-05-05T04:01:13.056Z,95695.75
2023-05-05T04:03:16.645Z,96003.25
2023-05-05T04:05:22.500Z,96005.72
2023-05-05T04:07:26.100Z,95843.63
2023-05-05T04:09:28.962Z,96006.53
2023-05-05T04:11:31.722Z,95631.63
2023-05-05T04:13:34.658Z,96007.13
2023-05-05T04:15:44.821Z,95991.53
2023-05-05T04:17:47.974Z,96001.50
2023-05-05T04:19:51.061Z,95946.16
2023-05-05T04:21:54.057Z,95812.59
2023-05-05T04:23:57.736Z,95992.59
2023-05-05T04:26:01.013Z,95915.91
2023-05-05T04:28:04.180Z,96013.63
2023-05-05T04:30:09.600Z,96019.81
2023-05-05T04:32:15.449Z,96018.47
2023-05-05T04:34:19.442Z,96017.94
2023-05-05T04:36:22.957Z,96021.22
2023-05-05T04:38:25.855Z,96027.16
2023-05-05T04:40:29.133Z,96018.19
2023-05-05T04:42:33.743Z,96017.38
2023-05-05T04:44:37.741Z,95972.03
2023-05-05T04:46:40.607Z,96022.31
2023-05-05T04:48:45.004Z,96028.78
2023-05-05T04:50:48.840Z,96029.28
2023-05-05T04:52:52.914Z,96022.25
2023-05-05T04:54:56.169Z,96027.38
2023-05-05T04:56:59.191Z,96030.69
2023-05-05T04:59:01.937Z,96029.88
2023-05-05T05:01:04.769Z,96013.66
2023-05-05T05:03:08.233Z,95990.94
2023-05-05T05:05:12.501Z,96030.09
2023-05-05T05:07:15.415Z,96028.44
2023-05-05T05:09:18.398Z,96026.50
2023-05-05T05:11:21.462Z,96040.50
2023-05-05T05:13:24.335Z,95963.00
2023-05-05T05:15:27.459Z,96036.34
2023-05-05T05:17:30.995Z,96043.66
2023-05-05T05:19:35.002Z,96049.09
2023-05-05T05:21:39.722Z,96043.84
2023-05-05T05:23:42.477Z,96045.19
2023-05-05T05:25:45.773Z,96052.09
2023-05-05T05:28:02.219Z,96049.00
2023-05-05T05:30:12.448Z,96045.28
2023-05-05T05:32:15.423Z,96056.53
2023-05-05T05:34:18.502Z,96046.88
2023-05-05T05:36:21.646Z,96044.84
2023-05-05T05:38:26.151Z,96048.78
2023-05-05T05:40:32.184Z,96044.56
2023-05-05T05:42:36.720Z,96052.81
2023-05-05T05:44:40.787Z,96048.63
2023-05-05T05:46:43.612Z,96059.38
2023-05-05T05:48:46.733Z,96053.88
2023-05-05T05:50:50.066Z,96057.03
2023-05-05T05:52:55.264Z,96056.91
2023-05-05T05:55:00.054Z,95942.84
2023-05-05T05:57:04.286Z,96064.34
2023-05-05T05:59:08.104Z,95903.81
2023-05-05T06:01:11.029Z,96076.78
2023-05-05T06:03:14.077Z,96079.44
2023-05-05T06:05:17.787Z,95972.50
2023-05-05T06:07:21.897Z,96075.59
2023-05-05T06:09:25.109Z,96066.28
2023-05-05T06:11:30.770Z,96087.44
2023-05-05T06:13:34.147Z,96079.50
2023-05-05T06:15:37.462Z,96076.63
2023-05-05T06:17:41.855Z,96070.75
2023-05-05T06:19:44.650Z,96077.22
2023-05-05T06:21:47.444Z,96075.09
2023-05-05T06:23:50.872Z,96068.81
2023-05-05T06:25:54.579Z,96052.06
2023-05-05T06:27:58.606Z,96067.47
2023-05-05T06:30:01.326Z,96055.69
2023-05-05T06:32:04.036Z,96066.44
2023-05-05T06:34:06.713Z,96073.09
2023-05-05T06:36:10.149Z,96085.59
2023-05-05T06:38:13.242Z,96073.50
2023-05-05T06:40:16.220Z,96075.34
2023-05-05T06:42:18.961Z,96070.41
2023-05-05T06:44:23.568Z,96083.78
2023-05-05T06:46:26.275Z,96073.56
2023-05-05T06:48:29.145Z,96084.13
2023-05-05T06:50:31.976Z,96079.28
2023-05-05T06:52:34.658Z,96076.19
2023-05-05T06:54:37.362Z,96072.31
2023-05-05T06:56:40.059Z,96080.97
2023-05-05T06:58:42.823Z,96057.25
2023-05-05T07:00:46.813Z,96064.53
2023-05-05T07:02:49.600Z,96092.19
2023-05-05T07:04:52.408Z,96084.34
2023-05-05T07:06:55.519Z,96047.38
2023-05-05T07:08:58.537Z,96088.41
2023-05-05T07:11:01.790Z,96089.03
2023-05-05T07:13:04.455Z,96085.09
2023-05-05T07:15:23.229Z,96094.03
2023-05-05T07:17:31.554Z,96092.91
2023-05-05T07:19:34.339Z,96097.47
2023-05-05T07:21:37.530Z,96100.69
2023-05-05T07:23:40.639Z,96102.47
2023-05-05T07:25:43.869Z,96106.75
2023-05-05T07:27:46.701Z,96101.78
2023-05-05T07:29:49.458Z,96093.19
2023-05-05T07:31:52.246Z,96020.91
2023-05-05T07:33:56.357Z,96088.16
2023-05-05T07:35:59.374Z,96100.00
2023-05-05T07:38:02.211Z,96093.91
2023-05-05T07:40:06.007Z,96095.44
2023-05-05T07:42:09.333Z,96099.13
2023-05-05T07:44:12.406Z,95920.63
2023-05-05T07:46:15.255Z,96101.69
2023-05-05T07:48:18.055Z,96105.16
2023-05-05T07:50:22.271Z,96104.94
2023-05-05T07:52:43.640Z,96107.06
2023-05-05T07:54:48.561Z,96108.00
2023-05-05T07:56:51.332Z,96107.78
2023-05-05T07:58:54.454Z,96100.50
2023-05-05T08:00:57.270Z,96097.94
2023-05-05T08:03:00.103Z,96104.56
2023-05-05T08:05:03.032Z,96096.41
2023-05-05T08:07:08.085Z,96095.00
2023-05-05T08:09:10.864Z,96092.38
2023-05-05T08:11:13.634Z,96090.59
2023-05-05T08:13:16.475Z,96094.50
2023-05-05T08:15:19.534Z,96090.75
2023-05-05T08:17:22.345Z,96087.06
2023-05-05T08:19:29.396Z,96068.84
2023-05-05T08:21:33.645Z,96079.94
2023-05-05T08:23:38.837Z,96081.16
2023-05-05T08:25:41.582Z,96060.31
2023-05-05T08:27:44.901Z,96079.88
2023-05-05T08:29:47.611Z,96083.63
2023-05-05T08:31:50.387Z,96074.25
2023-05-05T08:33:53.101Z,96085.47
2023-05-05T08:35:55.925Z,96091.50
2023-05-05T08:37:59.293Z,96094.44
2023-05-05T08:40:03.571Z,96093.84
2023-05-05T08:42:06.541Z,96091.91
2023-05-05T08:44:09.503Z,96101.69
2023-05-05T08:46:13.155Z,96095.16
2023-05-05T08:48:19.520Z,96089.38
2023-05-05T08:50:26.491Z,96102.94
2023-05-05T08:52:33.222Z,96102.50
2023-05-05T08:54:39.096Z,96096.75
2023-05-05T08:56:45.026Z,96077.06
2023-05-05T08:58:48.826Z,96103.34
2023-05-05T09:00:52.533Z,96022.75
2023-05-05T09:02:57.776Z,96108.63
2023-05-05T09:05:05.098Z,96095.91
2023-05-05T09:07:08.350Z,96101.59
2023-05-05T09:09:11.936Z,96099.34
2023-05-05T09:11:14.681Z,96079.97
2023-05-05T09:13:19.697Z,96101.91
2023-05-05T09:15:22.494Z,96112.84
2023-05-05T09:17:26.213Z,96092.91
2023-05-05T09:19:28.972Z,96088.75
2023-05-05T09:21:32.213Z,96088.13
2023-05-05T09:23:35.026Z,96099.38
2023-05-05T09:25:37.967Z,96060.34
2023-05-05T09:27:42.209Z,96091.69
2023-05-05T09:29:51.345Z,96100.28
2023-05-05T09:32:05.805Z,96084.34
2023-05-05T09:34:15.892Z,96019.22
2023-05-05T09:36:18.655Z,96085.97
2023-05-05T09:38:23.161Z,96086.69
2023-05-05T09:40:25.952Z,96083.72
2023-05-05T09:42:29.071Z,96079.25
2023-05-05T09:44:35.977Z,96089.06
2023-05-05T09:46:51.029Z,96077.84
2023-05-05T09:48:53.941Z,96073.41
2023-05-05T09:50:57.866Z,96087.31
2023-05-05T09:53:04.110Z,96080.22
2023-05-05T09:55:09.113Z,96079.78
2023-05-05T09:57:27.348Z,96078.53
2023-05-05T09:59:30.177Z,96055.94
2023-05-05T10:01:32.955Z,96072.88
2023-05-05T10:03:51.333Z,96076.13
2023-05-05T10:05:55.788Z,96072.84
2023-05-05T10:08:13.712Z,96067.78
2023-05-05T10:10:17.917Z,96074.25
2023-05-05T10:12:20.668Z,96079.41
2023-05-05T10:14:25.530Z,96065.97
2023-05-05T10:16:31.065Z,96065.56
2023-05-05T10:18:34.242Z,96061.94
2023-05-05T10:20:39.842Z,96031.84
2023-05-05T10:22:50.728Z,96057.59
2023-05-05T10:24:58.801Z,96054.84
2023-05-05T10:27:03.578Z,96023.78
2023-05-05T10:29:13.118Z,96045.06
2023-05-05T10:31:26.285Z,96045.69
2023-05-05T10:33:37.213Z,96040.50
2023-05-05T10:35:45.117Z,96046.28
2023-05-05T10:37:48.503Z,96052.56
2023-05-05T10:39:52.638Z,96045.28
2023-05-05T10:41:55.368Z,96049.84
2023-05-05T10:44:01.513Z,96042.41
2023-05-05T10:46:06.099Z,96034.78
2023-05-05T10:48:15.676Z,96040.16
2023-05-05T10:50:28.112Z,96032.63
2023-05-05T10:52:38.011Z,95997.22
2023-05-05T10:54:46.457Z,96017.31
2023-05-05T10:56:49.529Z,95991.72
2023-05-05T10:58:59.778Z,96016.75
2023-05-05T11:01:03.576Z,96016.44
2023-05-05T11:03:21.462Z,96012.97
2023-05-05T11:05:24.532Z,96015.84
2023-05-05T11:07:27.523Z,96012.28
2023-05-05T11:09:31.628Z,96011.47
2023-05-05T11:12:05.052Z,96014.41
2023-05-05T11:14:23.259Z,96004.16
2023-05-05T11:16:44.930Z,96001.41
2023-05-05T11:18:47.790Z,96002.00
2023-05-05T11:21:19.181Z,96000.88
2023-05-05T11:23:24.891Z,95995.22
2023-05-05T11:25:51.538Z,96008.66
2023-05-05T11:28:07.027Z,95986.78
2023-05-05T11:30:11.510Z,95971.03
2023-05-05T11:32:15.686Z,95984.72
2023-05-05T11:34:28.707Z,96000.44
2023-05-05T11:36:42.074Z,95993.72
2023-05-05T11:39:08.605Z,95980.41
2023-05-05T11:41:16.733Z,95949.19
2023-05-05T11:43:19.987Z,95982.78
2023-05-05T11:45:24.566Z,95978.31
2023-05-05T11:47:29.856Z,95978.22
2023-05-05T11:49:34.071Z,95976.00
2023-05-05T11:51:37.377Z,95955.41
2023-05-05T11:53:43.808Z,95978.38
2023-05-05T11:55:46.590Z,95976.03
2023-05-05T11:57:50.718Z,95976.31
2023-05-05T11:59:56.606Z,95971.34
2023-05-05T12:01:59.366Z,95970.06
2023-05-05T12:04:02.424Z,95947.94
2023-05-05T12:06:06.276Z,95960.13
2023-05-05T12:08:10.270Z,95954.81
2023-05-05T12:10:13.117Z,95922.88
2023-05-05T12:12:16.495Z,95963.72
2023-05-05T12:14:21.214Z,95966.59
2023-05-05T12:16:23.963Z,95964.63
2023-05-05T12:18:26.697Z,95964.31
2023-05-05T12:20:33.878Z,95957.03
2023-05-05T12:22:36.780Z,95951.41
2023-05-05T12:24:39.611Z,95944.72
2023-05-05T12:26:42.665Z,95945.34
2023-05-05T12:28:47.180Z,95944.09
2023-05-05T12:30:59.808Z,95918.81
2023-05-05T12:33:03.765Z,95900.88
2023-05-05T12:35:08.579Z,95937.09
2023-05-05T12:37:11.332Z,95940.06
2023-05-05T12:39:14.073Z,95934.38
2023-05-05T12:41:21.273Z,95925.31
2023-05-05T12:43:29.826Z,95927.16
2023-05-05T12:45:32.684Z,95915.78
2023-05-05T12:47:37.315Z,95913.25
2023-05-05T12:49:49.774Z,95915.63
2023-05-05T12:51:56.538Z,95887.28
2023-05-05T12:54:04.392Z,95915.03
2023-05-05T12:56:07.480Z,95918.38
2023-05-05T12:58:10.224Z,95867.59
2023-05-05T13:00:17.710Z,95907.22
2023-05-05T13:02:21.130Z,95910.75
2023-05-05T13:04:26.764Z,95909.50
2023-05-05T13:06:29.530Z,95908.56
2023-05-05T13:08:43.316Z,95905.63
2023-05-05T13:10:59.060Z,95907.41
2023-05-05T13:13:02.473Z,95897.16
2023-05-05T13:15:05.642Z,95896.69
2023-05-05T13:17:09.039Z,95885.22
2023-05-05T13:19:11.811Z,95888.63
2023-05-05T13:21:16.682Z,95883.81
2023-05-05T13:23:19.915Z,95873.47
2023-05-05T13:25:22.849Z,95868.47
2023-05-05T13:27:25.974Z,95861.13
2023-05-05T13:29:31.363Z,95869.22
2023-05-05T13:31:34.671Z,95859.69
2023-05-05T13:33:37.685Z,95849.41
2023-05-05T13:35:40.753Z,95850.25
2023-05-05T13:37:46.634Z,95852.75
2023-05-05T13:39:49.981Z,95809.09
2023-05-05T13:41:52.904Z,95836.44
2023-05-05T13:43:56.460Z,95829.34
2023-05-05T13:46:12.279Z,95818.50
2023-05-05T13:48:22.268Z,95812.00
2023-05-05T13:50:25.026Z,95810.66
2023-05-05T13:52:28.980Z,95808.81
2023-05-05T13:54:34.643Z,95755.13
2023-05-05T13:56:37.395Z,95797.91
2023-05-05T13:58:40.194Z,95790.56
2023-05-05T14:00:42.946Z,95794.03
2023-05-05T14:02:45.791Z,95751.91
2023-05-05T14:04:48.517Z,95801.47
2023-05-05T14:06:51.385Z,95804.06
2023-05-05T14:08:54.256Z,95809.41
2023-05-05T14:10:58.542Z,95787.47
2023-05-05T14:13:01.310Z,95812.22
2023-05-05T14:15:04.276Z,95809.47
2023-05-05T14:17:07.050Z,95769.47
2023-05-05T14:19:09.829Z,95795.75
2023-05-05T14:21:12.554Z,95814.28
2023-05-05T14:23:15.266Z,95816.25
2023-05-05T14:25:18.150Z,95753.66
2023-05-05T14:27:22.194Z,95800.34
2023-05-05T14:29:24.924Z,95776.53
2023-05-05T14:31:28.565Z,95792.81
2023-05-05T14:33:31.311Z,95774.41
2023-05-05T14:35:34.156Z,95768.81
2023-05-05T14:37:36.878Z,95775.59
2023-05-05T14:39:39.606Z,95749.34
2023-05-05T14:41:42.348Z,95778.63
2023-05-05T14:43:46.430Z,95779.13
2023-05-05T14:45:49.189Z,95782.13
2023-05-05T14:47:52.005Z,95772.69
2023-05-05T14:49:54.779Z,95773.19
2023-05-05T14:51:57.565Z,95776.19
2023-05-05T14:54:00.433Z,95776.69
2023-05-05T14:56:03.275Z,95781.88
2023-05-05T14:58:05.985Z,95771.59
2023-05-05T15:00:11.950Z,95769.50
2023-05-05T15:02:14.687Z,95758.91
2023-05-05T15:04:17.430Z,95777.81
2023-05-05T15:06:20.578Z,95778.22
2023-05-05T15:08:23.508Z,95781.38
2023-05-05T15:10:26.388Z,95785.91
2023-05-05T15:12:29.112Z,95789.69
2023-05-05T15:14:31.831Z,95792.63
2023-05-05T15:16:36.202Z,95799.81
2023-05-05T15:18:38.936Z,95797.50
2023-05-05T15:20:41.684Z,95810.81
2023-05-05T15:22:44.435Z,95815.88
2023-05-05T15:24:47.200Z,95815.44
2023-05-05T15:26:49.997Z,95812.03
2023-05-05T15:28:53.392Z,95804.63
2023-05-05T15:30:56.124Z,95793.38
2023-05-05T15:33:00.410Z,95808.91
2023-05-05T15:35:03.172Z,95767.41
2023-05-05T15:37:06.255Z,95824.41
2023-05-05T15:39:09.095Z,95822.56
2023-05-05T15:41:14.802Z,95825.59
2023-05-05T15:43:17.540Z,95806.38
2023-05-05T15:45:20.284Z,95865.22
2023-05-05T15:47:28.760Z,95866.69
2023-05-05T15:49:32.888Z,95875.22
2023-05-05T15:51:36.032Z,95880.56
2023-05-05T15:53:38.846Z,95892.78
2023-05-05T15:55:41.628Z,95898.38
2023-05-05T15:57:44.439Z,95902.63
2023-05-05T15:59:47.212Z,95883.81
2023-05-05T16:01:50.124Z,95912.50
2023-05-05T16:03:52.824Z,95905.31
2023-05-05T16:05:56.888Z,95922.69
2023-05-05T16:07:59.619Z,95922.31
2023-05-05T16:10:02.512Z,95922.78
2023-05-05T16:12:05.588Z,95929.03
2023-05-05T16:14:08.397Z,95935.13
2023-05-05T16:16:11.128Z,95935.59
2023-05-05T16:18:13.884Z,95945.22
2023-05-05T16:20:16.896Z,95933.19
2023-05-05T16:22:21.748Z,95931.13
2023-05-05T16:24:24.468Z,95922.41
2023-05-05T16:26:27.179Z,95928.06
2023-05-05T16:28:29.985Z,95910.56
2023-05-05T16:30:32.724Z,95904.97
2023-05-05T16:32:35.476Z,95903.16
2023-05-05T16:34:38.244Z,95901.03
2023-05-05T16:36:42.005Z,95905.56
2023-05-05T16:38:48.019Z,95905.47
2023-05-05T16:40:50.748Z,95894.66
2023-05-05T16:42:53.476Z,95903.09
2023-05-05T16:44:56.295Z,95899.16
2023-05-05T16:46:59.297Z,95889.63
2023-05-05T16:49:01.985Z,95903.28
2023-05-05T16:51:04.809Z,95895.06
2023-05-05T16:53:07.504Z,95893.81
2023-05-05T16:55:11.864Z,95902.31
2023-05-05T16:57:14.674Z,95902.81
2023-05-05T16:59:19.107Z,95891.94
2023-05-05T17:01:21.881Z,95897.34
2023-05-05T17:03:24.664Z,95903.28
2023-05-05T17:05:27.653Z,95895.44
2023-05-05T17:07:30.389Z,95889.09
2023-05-05T17:09:33.101Z,95899.16
2023-05-05T17:11:37.145Z,95831.91
2023-05-05T17:13:39.925Z,95895.53
2023-05-05T17:15:44.140Z,95906.59
2023-05-05T17:17:46.859Z,95897.88
2023-05-05T17:19:49.641Z,95899.50
2023-05-05T17:21:52.363Z,95902.38
2023-05-05T17:23:55.080Z,95897.75
2023-05-05T17:25:58.744Z,95897.38
2023-05-05T17:28:02.869Z,95900.25
2023-05-05T17:30:06.632Z,95891.72
2023-05-05T17:32:09.727Z,95889.53
2023-05-05T17:34:12.674Z,95869.50
2023-05-05T17:36:15.393Z,95879.50
2023-05-05T17:38:18.378Z,95760.13
2023-05-05T17:40:21.328Z,95880.97
2023-05-05T17:42:26.887Z,95892.13
2023-05-05T17:44:32.553Z,95890.50
2023-05-05T17:46:36.404Z,95888.78
2023-05-05T17:48:39.542Z,95889.06
2023-05-05T17:50:43.380Z,95875.19
2023-05-05T17:52:46.511Z,95891.91
2023-05-05T17:54:49.582Z,95882.63
2023-05-05T17:56:52.458Z,95893.56
2023-05-05T17:58:55.174Z,95891.50
2023-05-05T18:00:59.329Z,95892.03
2023-05-05T18:03:02.223Z,95891.50
2023-05-05T18:05:05.484Z,95894.47
2023-05-05T18:07:08.555Z,95852.34
2023-05-05T18:09:12.043Z,95837.22
2023-05-05T18:11:15.236Z,95895.97
2023-05-05T18:13:17.988Z,95873.00
2023-05-05T18:15:20.710Z,95903.16
2023-05-05T18:17:24.838Z,95904.94
2023-05-05T18:19:27.516Z,95898.78
2023-05-05T18:21:30.200Z,95900.94
2023-05-05T18:23:32.883Z,95884.09
2023-05-05T18:25:35.783Z,95901.25
2023-05-05T18:27:38.942Z,95892.53
2023-05-05T18:29:41.692Z,95803.09
2023-05-05T18:31:44.755Z,95896.41
2023-05-05T18:33:48.856Z,95901.41
2023-05-05T18:35:51.930Z,95860.31
2023-05-05T18:37:55.097Z,95895.66
2023-05-05T18:39:57.801Z,95911.66
2023-05-05T18:42:00.503Z,95889.41
2023-05-05T18:44:03.181Z,95840.09
2023-05-05T18:46:05.992Z,95903.50
2023-05-05T18:48:08.790Z,95909.50
2023-05-05T18:50:13.517Z,95908.22
2023-05-05T18:52:16.844Z,95863.84
2023-05-05T18:54:20.852Z,95916.75
2023-05-05T18:56:23.590Z,95921.38
2023-05-05T18:58:27.228Z,95906.03
2023-05-05T19:00:29.983Z,95926.69
2023-05-05T19:02:32.785Z,95924.03
2023-05-05T19:04:37.817Z,95938.03
2023-05-05T19:06:42.148Z,95943.50
2023-05-05T19:08:45.111Z,95949.19
2023-05-05T19:10:47.901Z,95959.38
2023-05-05T19:12:50.664Z,95957.34
2023-05-05T19:14:53.746Z,95947.72
2023-05-05T19:16:58.929Z,95884.50
2023-05-05T19:19:02.069Z,95939.28
2023-05-05T19:21:04.877Z,95973.28
2023-05-05T19:23:09.014Z,95893.25
2023-05-05T19:25:14.218Z,95986.78
2023-05-05T19:27:17.304Z,95977.47
2023-05-05T19:29:20.190Z,95974.16
2023-05-05T19:31:27.503Z,95975.06
2023-05-05T19:33:30.664Z,95986.88
2023-05-05T19:35:33.466Z,95992.19
2023-05-05T19:37:36.308Z,95996.63
2023-05-05T19:39:40.389Z,95997.81
2023-05-05T19:41:43.116Z,95994.16
2023-05-05T19:43:46.631Z,95965.28
2023-05-05T19:45:50.532Z,95997.28
2023-05-05T19:47:53.493Z,95973.13
2023-05-05T19:49:58.917Z,95945.03
2023-05-05T19:52:01.884Z,95969.28
2023-05-05T19:54:04.821Z,96001.56
2023-05-05T19:56:08.907Z,96002.00
2023-05-05T19:58:11.615Z,96007.34
2023-05-05T20:00:15.037Z,96008.38
2023-05-05T20:02:17.966Z,96008.63
2023-05-05T20:04:20.715Z,96002.91
2023-05-05T20:06:24.324Z,96007.91
2023-05-05T20:08:27.094Z,95952.19
2023-05-05T20:10:29.890Z,96013.88
2023-05-05T20:12:34.162Z,96019.78
2023-05-05T20:14:36.923Z,96018.97
2023-05-05T20:16:41.029Z,96027.41
2023-05-05T20:18:43.727Z,96026.31
2023-05-05T20:20:46.470Z,96030.59
2023-05-05T20:22:50.275Z,96026.31
2023-05-05T20:24:53.317Z,96035.97
2023-05-05T20:26:56.074Z,96042.19
2023-05-05T20:29:00.146Z,96036.25
2023-05-05T20:31:02.919Z,96038.25
2023-05-05T20:33:05.726Z,96031.88
2023-05-05T20:35:09.782Z,95993.09
2023-05-05T20:37:13.768Z,96029.16
2023-05-05T20:39:16.844Z,96030.81
2023-05-05T20:41:19.553Z,96031.34
2023-05-05T20:43:22.362Z,96029.63
2023-05-05T20:45:26.708Z,95962.47
2023-05-05T20:47:29.485Z,96031.72
2023-05-05T20:49:32.272Z,96034.97
2023-05-05T20:51:35.129Z,96035.25
2023-05-05T20:53:37.868Z,96024.97
2023-05-05T20:55:40.864Z,96025.69
2023-05-05T20:57:43.530Z,96029.34
2023-05-05T20:59:46.244Z,96027.28
2023-05-05T21:01:50.313Z,96024.22
2023-05-05T21:03:52.996Z,96025.72
2023-05-05T21:05:55.727Z,95975.72
2023-05-05T21:07:59.967Z,96021.59
2023-05-05T21:10:04.338Z,96021.00
2023-05-05T21:12:07.757Z,96021.22
2023-05-05T21:14:11.017Z,96021.28
2023-05-05T21:16:13.697Z,96024.56
2023-05-05T21:18:17.695Z,96020.81
2023-05-05T21:20:21.033Z,96021.91
2023-05-05T21:22:23.954Z,96026.19
2023-05-05T21:24:27.943Z,96024.94
2023-05-05T21:26:30.644Z,96025.47
2023-05-05T21:28:33.358Z,96024.94
2023-05-05T21:30:36.089Z,96029.50
2023-05-05T21:32:39.235Z,96021.09
2023-05-05T21:34:43.381Z,96022.97
2023-05-05T21:36:46.080Z,96026.50
2023-05-05T21:38:48.872Z,96023.78
2023-05-05T21:40:57.903Z,96027.34
2023-05-05T21:43:00.693Z,96031.63
2023-05-05T21:45:03.461Z,95977.06
2023-05-05T21:47:06.315Z,96028.38
2023-05-05T21:49:14.231Z,96026.19
2023-05-05T21:51:18.398Z,96025.13
2023-05-05T21:53:21.792Z,96001.94
2023-05-05T21:55:24.551Z,96018.66
2023-05-05T21:57:27.254Z,96015.97
2023-05-05T21:59:30.034Z,96015.69
2023-05-05T22:01:33.150Z,96008.63
2023-05-05T22:03:35.993Z,95977.75
2023-05-05T22:05:39.210Z,96022.28
2023-05-05T22:07:43.270Z,96016.59
2023-05-05T22:09:46.520Z,96005.88
2023-05-05T22:11:49.216Z,96004.69
2023-05-05T22:13:53.948Z,96002.69
2023-05-05T22:15:56.874Z,95997.72
2023-05-05T22:17:59.690Z,95998.50
2023-05-05T22:20:02.474Z,96003.09
2023-05-05T22:22:05.295Z,96001.63
2023-05-05T22:24:09.622Z,95940.69
2023-05-05T22:26:12.770Z,95998.16
2023-05-05T22:28:15.497Z,96001.56
2023-05-05T22:30:18.227Z,96005.31
2023-05-05T22:32:21.168Z,96008.81
2023-05-05T22:34:23.952Z,95999.03
2023-05-05T22:36:25.874Z,96002.53
2023-05-05T22:38:28.571Z,95946.19
2023-05-05T22:40:32.662Z,95797.06
2023-05-05T22:42:35.549Z,95891.50
2023-05-05T22:44:39.229Z,95964.19
2023-05-05T22:46:42.083Z,95969.28
2023-05-05T22:48:44.801Z,95990.91
2023-05-05T22:50:47.443Z,95992.00
2023-05-05T22:52:50.149Z,95996.34
2023-05-05T22:54:52.820Z,95986.03
2023-05-05T22:56:56.871Z,96002.00
2023-05-05T22:58:59.574Z,95991.47
2023-05-05T23:01:02.345Z,96000.13
2023-05-05T23:03:05.370Z,96000.38
2023-05-05T23:05:08.778Z,95996.38
2023-05-05T23:07:12.324Z,95999.63
2023-05-05T23:09:15.045Z,95974.78
2023-05-05T23:11:17.816Z,96007.47
2023-05-05T23:13:22.233Z,95997.25
2023-05-05T23:15:25.108Z,96000.22
2023-05-05T23:17:27.854Z,95997.22
2023-05-05T23:19:32.629Z,95994.50
2023-05-05T23:21:45.314Z,95987.22
2023-05-05T23:23:55.597Z,95993.72
2023-05-05T23:25:58.429Z,95907.31
2023-05-05T23:28:01.126Z,95963.47
2023-05-05T23:30:06.296Z,96005.88
2023-05-05T23:32:09.227Z,95893.81
2023-05-05T23:34:11.985Z,95996.44
2023-05-05T23:36:14.788Z,95996.44
2023-05-05T23:38:17.510Z,96008.59
2023-05-05T23:40:20.509Z,95911.09
2023-05-05T23:42:23.237Z,96001.25
2023-05-05T23:44:25.989Z,95958.06
2023-05-05T23:46:30.532Z,96002.84
2023-05-05T23:48:33.276Z,95991.81
2023-05-05T23:50:36.043Z,95941.03
2023-05-05T23:52:38.730Z,95990.47
2023-05-05T23:54:41.626Z,95991.56
2023-05-05T23:56:45.690Z,95996.97
2023-05-05T23:58:48.421Z,95913.53
